Waterloo, IA (50701)

11:07 AM CDT on August 31, 2015 (GMT -0500)
Columbus Dr - Waterloo | | Change Station
CLOSE
Current Station
Personal Weather Station
Location: Waterloo, IA
Elevation: 910 ft
Nearby Weather Stations
Active Advisory: Flood Warning

Elev 910 ft 42.47 °N, 92.34 °W | Updated 6 seconds ago

Clear
Clear
75.7 °F
Feels Like 75 °F
N
2.9
Wind Variable Wind from SE
Gusts 4.0 mph

Today
High -- | Low -- °F
--% Chance of Precip.
Yesterday
High -- | Low -- °F
Precip. -- in
6:33 AM 7:45 PM
Waning Gibbous, 95% visible
Pressure 30.00 in
Visibility 6.0 miles
Clouds Clear
Heat Index 75 °F
Dew Point 73 °F
Humidity 90%
Rainfall 0.00 in
Snow Depth Not available.
UV 4 out of 12
Pollen 10.80 out of 12
Air Quality Not available.
Flu Activity Not available.
METAR KALO 311454Z 14006KT 6SM BR CLR 21/19 A3001 RMK AO2 SLP159 T02110194 51002
Pressure 30.00 in
Visibility 6.0 miles
Clouds Clear
Heat Index 75 °F
Dew Point 73 °F
Humidity 90%
Rainfall 0.00 in
Snow Depth Not available.
UV 4 out of 12
Pollen 10.80 out of 12
Air Quality Not available.
Flu Activity Not available.
METAR KALO 311454Z 14006KT 6SM BR CLR 21/19 A3001 RMK AO2 SLP159 T02110194 51002

10-Day Weather Forecast

×

Almanac

Astronomy

Aug. 31, 2015 Rise Set
Actual Time
Civil Twilight
Nautical Twilight
Astronomical Twilight
Moon
Length of Visible Light
Length of Day
Tomorrow will be .
, % of the Moon is Illuminated

Today's Extremes

State Highs State Lows

Community

WunderPhotos

Upload Photos

1,851,298 photos uploaded!

WunderBlogs® & News

Nearby

Air Quality

  Air Quality AQ Index Pollutant
Not available.

Snow Depth

Station Depth Elevation

Earthquake Activity

City Distance Mag. Time & Date
Minimum magnitude displayed is 2.5.

Coastal Water Temperatures

Place Temperature

Stations

Nearby Weather Stations

Station Location Temp. Windchill Dew Point Humidity Wind Precip. Elev Updated Type
                   
Flood Warning
Statement as of 9:59 AM CDT on August 31, 2015

... Flood Warning now in effect until this afternoon...

The Flood Warning continues for
the Black Hawk creek at Hudson... or from the Black Hawk-Grundy
County line... to the Cedar River in Waterloo.
* Until this afternoon.
* At 7:45 am Monday the stage was 14.7 feet... or 0.7 feet above
flood stage.
* Flood stage is 14.0 feet.
* Minor flooding is occurring and is forecast to continue.
* Forecast... go below flood stage this afternoon.
* Impact... at 14.5 feet... portions of ranchero Road west of US 63
are flooded.


Lat... Lon 4248 9228 4235 9247 4235 9254 4242 9254
      4253 9238